Spokane, WA (99212)

4:51 AM PST on December 05, 2016 (GMT -0800)
I-90 & Sprague Ave | | Change Station

Elev 1991 ft 47.65 °N, 117.31 °W | Updated 13 seconds ago

Clear
Clear
23.7 °F
Feels Like 24 °F
N
1.1
Wind Variable Wind from WSW
Gusts 1.1 mph

Today
High -- | Low -- °F
--% Chance of Precip.
Yesterday
High -- | Low -- °F
Precip. -- in
Pressure 30.11 in
Visibility 10.0 miles
Clouds Clear
Windchill 24 °F
Dew Point 14 °F
Humidity 67%
Rainfall 0.00 in
Snow Depth Not available.
7:22 AM 3:57 PM
Waxing Crescent, 31% visible
METAR KSFF 051153Z AUTO 25004KT 10SM CLR M04/M08 A3005 RMK AO2 SLP196 70001 T10391083 11017 21039 51016
Pressure 30.11 in
Visibility 10.0 miles
Clouds Clear
Windchill 24 °F
Dew Point 14 °F
Humidity 67%
Rainfall 0.00 in
Snow Depth Not available.
7:22 AM 3:57 PM
Waxing Crescent, 31% visible
METAR KSFF 051153Z AUTO 25004KT 10SM CLR M04/M08 A3005 RMK AO2 SLP196 70001 T10391083 11017 21039 51016

10-Day Weather Forecast

Almanac

Astronomy

Dec. 05, 2016 Rise Set
Actual Time
Civil Twilight
Nautical Twilight
Astronomical Twilight
Moon
Length of Visible Light
Length of Day
Tomorrow will be .
, % of the Moon is Illuminated

Today's Extremes

State Highs State Lows

Community

WunderPhotos

Upload Photos

1,955,778 photos uploaded!

WunderBlog® & News

Nearby

Air Quality

  Air Quality AQ Index Pollutant
Not available.

Snow Depth

Station Depth Elevation

Earthquake Activity

City Distance Mag. Time & Date
Minimum magnitude displayed is 2.5.

Coastal Water Temperatures

Place Temperature

Stations

Nearby Weather Stations

Station Location Temp. Windchill Dew Point Humidity Wind Precip. Elev Updated Type
                   

Watches & Warnings

There are currently no watches in effect.